createdAt,value
2023-02-17T00:01:15.024Z,27.63
2023-02-17T00:03:42.219Z,25.25
2023-02-17T00:06:11.226Z,24.42
2023-02-17T00:08:38.460Z,28.08
2023-02-17T00:11:06.278Z,23.15
2023-02-17T00:13:33.479Z,31.63
2023-02-17T00:16:05.863Z,30.25
2023-02-17T00:18:33.029Z,28.77
2023-02-17T00:21:00.542Z,31.40
2023-02-17T00:23:27.571Z,24.52
2023-02-17T00:25:55.457Z,28.02
2023-02-17T00:28:22.509Z,26.90
2023-02-17T00:30:49.602Z,32.92
2023-02-17T00:33:16.646Z,26.60
2023-02-17T00:35:43.731Z,31.60
2023-02-17T00:38:10.816Z,30.33
2023-02-17T00:40:39.058Z,25.63
2023-02-17T00:43:06.108Z,29.60
2023-02-17T00:45:33.157Z,28.63
2023-02-17T00:48:00.281Z,31.30
2023-02-17T00:50:27.335Z,29.23
2023-02-17T00:52:54.854Z,29.13
2023-02-17T00:55:21.952Z,31.92
2023-02-17T00:57:49.112Z,29.83
2023-02-17T01:00:16.722Z,29.08
2023-02-17T01:02:43.784Z,32.58
2023-02-17T01:05:10.790Z,28.48
2023-02-17T01:07:38.078Z,29.48
2023-02-17T01:10:05.780Z,32.55
2023-02-17T01:12:32.880Z,36.10
2023-02-17T01:15:00.816Z,31.63
2023-02-17T01:17:27.972Z,34.97
2023-02-17T01:19:55.999Z,25.90
2023-02-17T01:22:23.394Z,30.77
2023-02-17T01:24:50.436Z,24.42
2023-02-17T01:27:17.472Z,34.50
2023-02-17T01:29:45.752Z,31.25
2023-02-17T01:32:12.859Z,36.85
2023-02-17T01:34:39.883Z,31.55
2023-02-17T01:37:07.005Z,30.00
2023-02-17T01:39:34.048Z,29.17
2023-02-17T01:42:01.301Z,30.73
2023-02-17T01:44:32.571Z,28.55
2023-02-17T01:46:59.609Z,29.00
2023-02-17T01:49:32.206Z,33.92
2023-02-17T01:52:10.889Z,29.65
2023-02-17T01:54:45.565Z,29.90
2023-02-17T01:57:17.046Z,39.67
2023-02-17T01:59:45.137Z,33.58
2023-02-17T02:02:12.724Z,30.65
2023-02-17T02:04:43.328Z,35.90
2023-02-17T02:07:18.745Z,40.78
2023-02-17T02:09:57.368Z,37.97
2023-02-17T02:12:26.059Z,33.30
2023-02-17T02:14:58.535Z,41.35
2023-02-17T02:17:41.148Z,38.03
2023-02-17T02:20:33.846Z,40.00
2023-02-17T02:23:06.635Z,37.35
2023-02-17T02:26:06.083Z,27.95
2023-02-17T02:29:14.743Z,30.48
2023-02-17T02:31:56.647Z,32.33
2023-02-17T02:34:30.259Z,32.38
2023-02-17T02:37:07.536Z,36.95
2023-02-17T02:39:41.125Z,32.78
2023-02-17T02:42:13.513Z,30.98
2023-02-17T02:44:40.570Z,33.05
2023-02-17T02:47:48.089Z,36.90
2023-02-17T02:50:19.839Z,29.25
2023-02-17T02:53:04.917Z,28.30
2023-02-17T02:55:54.812Z,32.60
2023-02-17T02:58:30.035Z,28.42
2023-02-17T03:01:28.869Z,29.85
2023-02-17T03:04:07.173Z,28.40
2023-02-17T03:06:48.073Z,25.75
2023-02-17T03:09:22.315Z,29.15
2023-02-17T03:11:50.906Z,27.17
2023-02-17T03:14:20.306Z,21.80
2023-02-17T03:16:48.098Z,24.00
2023-02-17T03:19:17.149Z,25.33
2023-02-17T03:21:56.735Z,27.02
2023-02-17T03:24:23.958Z,30.00
2023-02-17T03:26:51.782Z,25.58
2023-02-17T03:29:18.934Z,24.20
2023-02-17T03:31:46.101Z,32.35
2023-02-17T03:34:13.219Z,23.00
2023-02-17T03:36:40.312Z,33.13
2023-02-17T03:39:07.405Z,25.75
2023-02-17T03:41:34.734Z,20.88
2023-02-17T03:44:01.888Z,21.90
2023-02-17T03:46:28.930Z,25.52
2023-02-17T03:48:56.562Z,30.95
2023-02-17T03:51:25.126Z,26.45
2023-02-17T03:53:52.521Z,25.80
2023-02-17T03:56:19.726Z,28.02
2023-02-17T03:58:47.014Z,28.88
2023-02-17T04:01:15.019Z,33.35
2023-02-17T04:03:42.616Z,33.78
2023-02-17T04:06:10.386Z,36.15
2023-02-17T04:08:38.734Z,33.75
2023-02-17T04:11:07.730Z,34.47
2023-02-17T04:13:35.178Z,35.25
2023-02-17T04:16:04.260Z,34.75
2023-02-17T04:18:32.282Z,39.08
2023-02-17T04:20:59.612Z,35.95
2023-02-17T04:23:27.073Z,38.05
2023-02-17T04:25:55.377Z,34.38
2023-02-17T04:28:22.961Z,42.75
2023-02-17T04:30:50.895Z,36.28
2023-02-17T04:33:18.756Z,34.97
2023-02-17T04:35:47.402Z,34.10
2023-02-17T04:38:14.477Z,36.40
2023-02-17T04:40:42.466Z,35.47
2023-02-17T04:43:09.878Z,37.00
2023-02-17T04:45:37.815Z,35.75
2023-02-17T04:48:04.998Z,30.98
2023-02-17T04:50:31.989Z,33.40
2023-02-17T04:52:59.146Z,30.50
2023-02-17T04:55:26.226Z,27.08
2023-02-17T04:57:53.236Z,30.60
2023-02-17T05:00:20.723Z,27.50
2023-02-17T05:02:47.754Z,29.15
2023-02-17T05:05:18.908Z,25.52
2023-02-17T05:07:46.489Z,28.55
2023-02-17T05:10:15.064Z,32.08
2023-02-17T05:12:42.135Z,29.08
2023-02-17T05:15:10.145Z,31.60
2023-02-17T05:17:37.299Z,34.15
2023-02-17T05:20:06.506Z,35.72
2023-02-17T05:22:33.580Z,31.23
2023-02-17T05:25:00.647Z,30.48
2023-02-17T05:27:28.010Z,31.10
2023-02-17T05:29:55.702Z,28.38
2023-02-17T05:32:23.006Z,38.03
2023-02-17T05:34:50.100Z,31.00
2023-02-17T05:37:17.247Z,27.83
2023-02-17T05:39:44.258Z,32.65
2023-02-17T05:42:11.295Z,31.23
2023-02-17T05:44:38.379Z,33.95
2023-02-17T05:47:05.619Z,37.90
2023-02-17T05:49:32.756Z,40.30
2023-02-17T05:51:59.854Z,32.85
2023-02-17T05:54:26.918Z,32.80
2023-02-17T05:56:57.594Z,36.40
2023-02-17T05:59:25.574Z,35.65
2023-02-17T06:01:52.949Z,29.80
2023-02-17T06:04:20.146Z,35.83
2023-02-17T06:06:47.277Z,40.75
2023-02-17T06:09:14.377Z,40.45
2023-02-17T06:11:41.576Z,48.63
2023-02-17T06:14:08.640Z,44.92
2023-02-17T06:16:35.785Z,53.42
2023-02-17T06:19:05.068Z,46.08
2023-02-17T06:21:32.454Z,44.58
2023-02-17T06:23:59.535Z,48.13
2023-02-17T06:26:26.719Z,41.05
2023-02-17T06:28:57.275Z,43.63
2023-02-17T06:31:25.389Z,53.58
2023-02-17T06:33:52.771Z,40.42
2023-02-17T06:36:20.053Z,37.00
2023-02-17T06:38:47.081Z,42.45
2023-02-17T06:41:14.158Z,49.65
2023-02-17T06:43:41.291Z,43.53
2023-02-17T06:46:08.781Z,44.10
2023-02-17T06:48:36.073Z,36.15
2023-02-17T06:51:03.234Z,35.50
2023-02-17T06:53:30.255Z,39.75
2023-02-17T06:55:57.346Z,36.70
2023-02-17T06:58:25.692Z,34.60
2023-02-17T07:00:52.704Z,42.40
2023-02-17T07:03:19.765Z,33.15
2023-02-17T07:05:47.263Z,33.22
2023-02-17T07:08:14.390Z,36.50
2023-02-17T07:10:41.547Z,40.25
2023-02-17T07:13:08.631Z,38.45
2023-02-17T07:15:35.708Z,31.40
2023-02-17T07:18:03.181Z,34.67
2023-02-17T07:20:32.218Z,34.33
2023-02-17T07:23:00.868Z,33.08
2023-02-17T07:25:27.935Z,29.80
2023-02-17T07:27:55.560Z,26.08
2023-02-17T07:30:22.989Z,30.50
2023-02-17T07:32:50.005Z,33.40
2023-02-17T07:35:17.153Z,25.23
2023-02-17T07:37:44.208Z,29.52
2023-02-17T07:40:11.668Z,27.05
2023-02-17T07:42:38.991Z,26.20
2023-02-17T07:45:07.208Z,35.00
2023-02-17T07:47:34.280Z,20.35
2023-02-17T07:50:01.525Z,22.58
2023-02-17T07:52:28.555Z,24.52
2023-02-17T07:54:55.727Z,26.90
2023-02-17T07:57:23.012Z,26.10
2023-02-17T07:59:50.086Z,22.60
2023-02-17T08:02:17.230Z,22.38
2023-02-17T08:04:44.489Z,18.45
2023-02-17T08:07:11.531Z,21.75
2023-02-17T08:09:57.440Z,16.25
2023-02-17T08:12:43.800Z,18.55
2023-02-17T08:15:11.570Z,20.33
2023-02-17T08:17:38.952Z,15.43
2023-02-17T08:20:09.134Z,20.73
2023-02-17T08:22:37.211Z,20.13
2023-02-17T08:25:06.198Z,20.60
2023-02-17T08:27:33.486Z,16.85
2023-02-17T08:30:00.695Z,23.45
2023-02-17T08:32:27.848Z,18.23
2023-02-17T08:34:58.004Z,13.55
2023-02-17T08:37:25.839Z,17.95
2023-02-17T08:39:56.203Z,20.30
2023-02-17T08:42:27.263Z,15.93
2023-02-17T08:44:57.519Z,19.92
2023-02-17T08:47:25.543Z,20.30
2023-02-17T08:49:52.956Z,22.67
2023-02-17T08:52:20.065Z,14.95
2023-02-17T08:54:47.119Z,14.85
2023-02-17T08:57:14.211Z,16.02
2023-02-17T08:59:41.298Z,15.88
2023-02-17T09:02:08.473Z,16.77
2023-02-17T09:04:35.650Z,16.90
2023-02-17T09:07:03.368Z,19.00
2023-02-17T09:09:31.333Z,17.52
2023-02-17T09:11:58.776Z,16.25
2023-02-17T09:14:26.685Z,20.80
2023-02-17T09:16:56.838Z,17.27
2023-02-17T09:19:26.846Z,18.55
2023-02-17T09:21:56.944Z,18.90
2023-02-17T09:24:25.659Z,17.17
2023-02-17T09:26:53.123Z,17.20
2023-02-17T09:29:20.229Z,16.83
2023-02-17T09:31:47.427Z,16.50
2023-02-17T09:34:14.877Z,18.33
2023-02-17T09:36:42.420Z,16.08
2023-02-17T09:39:12.312Z,16.65
2023-02-17T09:41:47.741Z,16.25
2023-02-17T09:44:20.830Z,18.90
2023-02-17T09:47:01.733Z,14.73
2023-02-17T09:49:36.728Z,22.63
2023-02-17T09:52:21.366Z,16.65
2023-02-17T09:54:51.234Z,16.23
2023-02-17T09:57:21.601Z,13.90
2023-02-17T09:59:55.476Z,18.15
2023-02-17T10:02:39.939Z,16.77
2023-02-17T10:05:11.415Z,12.48
2023-02-17T10:08:22.011Z,11.18
2023-02-17T10:11:04.518Z,13.48
2023-02-17T10:13:34.976Z,11.43
2023-02-17T10:16:09.510Z,10.93
2023-02-17T10:18:42.001Z,16.52
2023-02-17T10:21:22.122Z,14.32
2023-02-17T10:23:51.366Z,13.13
2023-02-17T10:26:39.323Z,13.18
2023-02-17T10:29:45.259Z,11.75
2023-02-17T10:32:22.269Z,11.88
2023-02-17T10:35:15.131Z,11.05
2023-02-17T10:38:11.160Z,12.50
2023-02-17T10:40:38.300Z,9.48
2023-02-17T10:43:08.431Z,11.02
2023-02-17T10:45:45.462Z,12.95
2023-02-17T10:48:28.405Z,12.10
2023-02-17T10:50:59.995Z,11.07
2023-02-17T10:53:56.649Z,11.80
2023-02-17T10:56:33.434Z,12.73
2023-02-17T10:59:20.534Z,12.88
2023-02-17T11:01:48.712Z,18.23
2023-02-17T11:04:15.865Z,14.93
2023-02-17T11:06:51.737Z,19.90
2023-02-17T11:09:18.724Z,12.57
2023-02-17T11:12:22.154Z,12.75
2023-02-17T11:14:51.754Z,13.52
2023-02-17T11:17:27.723Z,10.60
2023-02-17T11:20:18.106Z,15.35
2023-02-17T11:22:47.930Z,10.82
2023-02-17T11:25:30.251Z,14.15
2023-02-17T11:27:59.929Z,13.65
2023-02-17T11:30:29.087Z,13.20
2023-02-17T11:32:56.620Z,12.35
2023-02-17T11:35:28.467Z,9.60
2023-02-17T11:38:15.477Z,11.52
2023-02-17T11:40:55.779Z,12.85
2023-02-17T11:43:24.710Z,15.43
2023-02-17T11:46:00.416Z,14.00
2023-02-17T11:48:55.704Z,16.55
2023-02-17T11:51:26.970Z,14.98
2023-02-17T11:54:31.548Z,12.13
2023-02-17T11:57:17.061Z,18.52
2023-02-17T11:59:44.040Z,14.93
2023-02-17T12:02:39.301Z,15.10
2023-02-17T12:05:09.329Z,16.02
2023-02-17T12:08:07.725Z,11.15
2023-02-17T12:11:02.808Z,17.77
2023-02-17T12:13:35.595Z,17.20
2023-02-17T12:16:08.750Z,15.70
2023-02-17T12:18:48.061Z,14.05
2023-02-17T12:21:43.431Z,12.32
2023-02-17T12:24:25.663Z,15.88
2023-02-17T12:27:24.626Z,18.25
2023-02-17T12:30:12.805Z,17.70
2023-02-17T12:33:12.017Z,11.95
2023-02-17T12:35:52.614Z,14.43
2023-02-17T12:38:27.390Z,18.00
2023-02-17T12:41:07.957Z,10.00
2023-02-17T12:43:38.989Z,14.80
2023-02-17T12:46:11.762Z,13.40
2023-02-17T12:48:46.524Z,16.37
2023-02-17T12:51:25.471Z,15.32
2023-02-17T12:54:07.844Z,14.80
2023-02-17T12:56:40.001Z,17.05
2023-02-17T12:59:24.483Z,14.30
2023-02-17T13:02:00.778Z,13.77
2023-02-17T13:04:29.743Z,7.20
2023-02-17T13:07:30.650Z,9.65
2023-02-17T13:09:58.108Z,10.25
2023-02-17T13:12:25.737Z,15.73
2023-02-17T13:14:58.606Z,15.57
2023-02-17T13:17:52.283Z,11.40
2023-02-17T13:20:19.248Z,13.45
2023-02-17T13:22:47.112Z,14.30
2023-02-17T13:25:30.487Z,11.20
2023-02-17T13:27:59.881Z,7.82
2023-02-17T13:30:41.885Z,12.10
2023-02-17T13:33:29.530Z,12.57
2023-02-17T13:35:56.746Z,9.55
2023-02-17T13:38:31.577Z,8.65
2023-02-17T13:41:04.282Z,6.65
2023-02-17T13:43:41.124Z,6.05
2023-02-17T13:46:16.780Z,7.88
2023-02-17T13:48:43.856Z,7.22
2023-02-17T13:51:29.268Z,7.80
2023-02-17T13:53:56.544Z,8.85
2023-02-17T13:56:28.862Z,8.68
2023-02-17T13:59:10.523Z,11.55
2023-02-17T14:01:42.670Z,9.20
2023-02-17T14:04:31.421Z,6.32
2023-02-17T14:07:01.096Z,15.40
2023-02-17T14:09:31.041Z,6.70
2023-02-17T14:12:01.548Z,8.07
2023-02-17T14:14:33.950Z,8.13
2023-02-17T14:17:32.649Z,7.30
2023-02-17T14:20:00.969Z,13.00
2023-02-17T14:22:33.920Z,11.13
2023-02-17T14:25:12.838Z,10.43
2023-02-17T14:27:45.521Z,16.52
2023-02-17T14:30:28.901Z,12.80
2023-02-17T14:33:01.966Z,12.02
2023-02-17T14:35:29.125Z,10.98
2023-02-17T14:38:07.805Z,17.52
2023-02-17T14:40:35.058Z,14.13
2023-02-17T14:43:02.592Z,12.32
2023-02-17T14:45:29.757Z,7.47
2023-02-17T14:47:57.654Z,10.75
2023-02-17T14:50:28.222Z,10.15
2023-02-17T14:52:58.524Z,7.78
2023-02-17T14:55:38.848Z,7.63
2023-02-17T14:58:05.889Z,10.57
2023-02-17T15:00:32.929Z,12.57
2023-02-17T15:02:59.940Z,6.15
2023-02-17T15:05:27.020Z,13.35
2023-02-17T15:07:54.745Z,10.80
2023-02-17T15:10:29.042Z,9.80
2023-02-17T15:12:56.992Z,14.00
2023-02-17T15:15:26.908Z,9.77
2023-02-17T15:17:56.331Z,12.90
2023-02-17T15:20:25.252Z,7.72
2023-02-17T15:22:54.502Z,10.13
2023-02-17T15:25:25.439Z,10.73
2023-02-17T15:27:56.658Z,6.72
2023-02-17T15:30:26.292Z,15.93
2023-02-17T15:32:58.694Z,12.60
2023-02-17T15:35:27.756Z,13.20
2023-02-17T15:37:58.977Z,7.05
2023-02-17T15:40:28.194Z,12.13
2023-02-17T15:43:00.997Z,10.40
2023-02-17T15:45:28.141Z,12.63
2023-02-17T15:48:25.499Z,22.45
2023-02-17T15:50:55.539Z,11.25
2023-02-17T15:53:23.144Z,18.83
2023-02-17T15:55:52.086Z,15.82
2023-02-17T15:58:22.132Z,14.63
2023-02-17T16:00:50.335Z,12.95
2023-02-17T16:03:18.434Z,14.73
2023-02-17T16:05:45.697Z,10.93
2023-02-17T16:08:12.875Z,19.50
2023-02-17T16:10:42.409Z,15.77
2023-02-17T16:13:14.282Z,7.57
2023-02-17T16:15:42.252Z,6.63
2023-02-17T16:18:21.424Z,20.02
2023-02-17T16:20:49.264Z,11.82
2023-02-17T16:23:16.535Z,11.02
2023-02-17T16:25:46.076Z,16.40
2023-02-17T16:28:19.421Z,14.25
2023-02-17T16:30:49.422Z,15.05
2023-02-17T16:33:17.092Z,10.20
2023-02-17T16:35:44.670Z,14.18
2023-02-17T16:38:22.829Z,16.85
2023-02-17T16:40:52.844Z,9.63
2023-02-17T16:43:27.659Z,12.45
2023-02-17T16:46:01.299Z,15.68
2023-02-17T16:50:57.068Z,18.55
2023-02-17T16:53:24.649Z,14.07
2023-02-17T16:55:55.659Z,10.48
2023-02-17T16:58:25.732Z,6.63
2023-02-17T17:00:56.437Z,15.38
2023-02-17T17:03:26.306Z,17.92
2023-02-17T17:05:56.543Z,10.02
2023-02-17T17:08:26.575Z,13.25
2023-02-17T17:10:56.973Z,13.10
2023-02-17T17:13:24.782Z,10.52
2023-02-17T17:15:52.065Z,11.57
2023-02-17T17:18:21.310Z,11.40
2023-02-17T17:20:48.598Z,12.75
2023-02-17T17:23:16.632Z,16.98
2023-02-17T17:25:46.591Z,17.02
2023-02-17T17:28:18.737Z,20.45
2023-02-17T17:30:46.778Z,19.10
2023-02-17T17:33:14.219Z,14.40
2023-02-17T17:35:41.288Z,19.08
2023-02-17T17:38:13.223Z,16.35
2023-02-17T17:40:49.401Z,9.90
2023-02-17T17:43:21.198Z,17.92
2023-02-17T17:45:50.599Z,13.80
2023-02-17T17:48:18.775Z,15.35
2023-02-17T17:50:45.927Z,14.13
2023-02-17T17:53:13.033Z,17.30
2023-02-17T17:55:40.241Z,16.73
2023-02-17T17:58:07.292Z,20.23
2023-02-17T18:00:34.465Z,16.13
2023-02-17T18:03:01.567Z,25.70
2023-02-17T18:05:28.680Z,24.08
2023-02-17T18:07:56.590Z,20.08
2023-02-17T18:10:24.906Z,20.10
2023-02-17T18:12:52.152Z,28.33
2023-02-17T18:15:19.569Z,16.95
2023-02-17T18:17:47.911Z,19.15
2023-02-17T18:20:15.225Z,16.20
2023-02-17T18:22:42.348Z,23.75
2023-02-17T18:25:10.577Z,19.50
2023-02-17T18:27:47.788Z,19.23
2023-02-17T18:30:21.389Z,17.85
2023-02-17T18:32:49.114Z,22.35
2023-02-17T18:35:16.757Z,17.70
2023-02-17T18:37:45.104Z,22.23
2023-02-17T18:40:15.176Z,19.17
2023-02-17T18:42:45.484Z,7.78
2023-02-17T18:45:13.649Z,20.30
2023-02-17T18:47:42.715Z,15.43
2023-02-17T18:50:10.670Z,16.00
2023-02-17T18:52:39.257Z,14.73
2023-02-17T18:55:07.312Z,20.88
2023-02-17T18:57:34.591Z,13.38
2023-02-17T19:00:02.573Z,19.23
2023-02-17T19:02:29.720Z,20.58
2023-02-17T19:04:56.967Z,21.77
2023-02-17T19:07:26.419Z,16.13
2023-02-17T19:09:56.623Z,16.95
2023-02-17T19:12:26.729Z,14.55
2023-02-17T19:14:56.760Z,16.88
2023-02-17T19:17:25.668Z,18.45
2023-02-17T19:19:53.001Z,20.00
2023-02-17T19:22:20.360Z,17.08
2023-02-17T19:24:52.258Z,18.83
2023-02-17T19:27:20.529Z,20.23
2023-02-17T19:29:47.680Z,22.05
2023-02-17T19:32:14.747Z,25.15
2023-02-17T19:34:41.793Z,21.88
2023-02-17T19:37:08.854Z,13.48
2023-02-17T19:39:36.112Z,20.83
2023-02-17T19:42:04.117Z,27.02
2023-02-17T19:44:31.724Z,16.45
2023-02-17T19:46:58.969Z,23.00
2023-02-17T19:49:26.216Z,15.23
2023-02-17T19:51:55.856Z,24.70
2023-02-17T19:54:24.504Z,17.50
2023-02-17T19:56:51.964Z,29.92
2023-02-17T19:59:19.340Z,20.85
2023-02-17T20:01:46.472Z,19.83
2023-02-17T20:04:14.041Z,20.40
2023-02-17T20:06:44.347Z,14.82
2023-02-17T20:09:18.384Z,26.50
2023-02-17T20:11:46.840Z,16.98
2023-02-17T20:14:14.005Z,23.70
2023-02-17T20:16:41.505Z,16.73
2023-02-17T20:19:08.697Z,25.95
2023-02-17T20:21:38.514Z,24.73
2023-02-17T20:24:05.970Z,20.05
2023-02-17T20:26:37.645Z,19.40
2023-02-17T20:29:05.426Z,36.90
2023-02-17T20:31:34.012Z,19.80
2023-02-17T20:34:04.055Z,29.75
2023-02-17T20:36:31.248Z,23.05
2023-02-17T20:38:58.304Z,25.05
2023-02-17T20:41:26.146Z,24.42
2023-02-17T20:43:53.279Z,22.52
2023-02-17T20:46:27.601Z,28.05
2023-02-17T20:48:56.364Z,22.80
2023-02-17T20:51:24.597Z,24.23
2023-02-17T20:53:52.322Z,16.25
2023-02-17T20:56:23.031Z,21.55
2023-02-17T20:58:51.958Z,21.95
2023-02-17T21:01:19.887Z,20.17
2023-02-17T21:03:47.528Z,21.77
2023-02-17T21:06:21.553Z,16.50
2023-02-17T21:11:20.416Z,21.85
2023-02-17T21:13:47.790Z,21.83
2023-02-17T21:16:17.351Z,22.65
2023-02-17T21:18:46.847Z,24.15
2023-02-17T21:21:15.050Z,31.98
2023-02-17T21:23:42.262Z,25.23
2023-02-17T21:26:11.058Z,29.80
2023-02-17T21:28:38.251Z,29.98
2023-02-17T21:31:06.145Z,23.88
2023-02-17T21:33:33.664Z,30.92
2023-02-17T21:36:06.103Z,21.73
2023-02-17T21:38:33.344Z,25.75
2023-02-17T21:41:10.640Z,21.67
2023-02-17T21:43:57.655Z,21.65
2023-02-17T21:46:26.065Z,24.63
2023-02-17T21:48:53.586Z,19.92
2023-02-17T21:51:21.054Z,32.53
2023-02-17T21:53:48.315Z,28.17
2023-02-17T21:56:15.903Z,19.40
2023-02-17T21:58:51.828Z,28.33
2023-02-17T22:01:20.538Z,25.13
2023-02-17T22:03:47.712Z,27.23
2023-02-17T22:06:21.077Z,19.50
2023-02-17T22:08:48.554Z,19.50
2023-02-17T22:11:18.191Z,26.48
2023-02-17T22:13:45.322Z,25.77
2023-02-17T22:16:12.724Z,26.27
2023-02-17T22:18:40.079Z,26.15
2023-02-17T22:21:10.416Z,25.35
2023-02-17T22:23:37.800Z,23.65
2023-02-17T22:26:09.858Z,26.80
2023-02-17T22:28:37.673Z,30.15
2023-02-17T22:31:05.847Z,22.52
2023-02-17T22:33:33.839Z,30.02
2023-02-17T22:36:10.574Z,23.83
2023-02-17T22:38:38.046Z,25.92
2023-02-17T22:41:10.770Z,29.23
2023-02-17T22:43:39.995Z,27.50
2023-02-17T22:46:08.210Z,30.95
2023-02-17T22:48:37.339Z,25.15
2023-02-17T22:51:09.484Z,30.58
2023-02-17T22:53:37.572Z,28.48
2023-02-17T22:56:06.008Z,23.70
2023-02-17T22:58:33.984Z,25.90
2023-02-17T23:01:04.972Z,29.23
2023-02-17T23:03:32.632Z,28.73
2023-02-17T23:06:06.374Z,33.30
2023-02-17T23:08:34.511Z,27.25
2023-02-17T23:11:09.376Z,28.17
2023-02-17T23:13:36.972Z,29.95
2023-02-17T23:16:05.590Z,31.73
2023-02-17T23:18:34.701Z,37.03
2023-02-17T23:21:08.941Z,39.05
2023-02-17T23:23:36.016Z,37.03
2023-02-17T23:26:03.080Z,29.27
2023-02-17T23:28:30.854Z,38.60
2023-02-17T23:30:58.476Z,38.00
2023-02-17T23:33:25.862Z,34.25
2023-02-17T23:35:53.273Z,32.40
2023-02-17T23:38:26.721Z,52.75
2023-02-17T23:40:56.597Z,56.00
2023-02-17T23:43:25.726Z,40.88
2023-02-17T23:45:56.415Z,39.70
2023-02-17T23:48:24.594Z,37.95
2023-02-17T23:51:03.372Z,33.28
2023-02-17T23:53:32.087Z,35.78
2023-02-17T23:56:13.109Z,33.00
2023-02-17T23:58:40.756Z,38.92
